sensor_id;sensor_type;location;lat;lon;timestamp;pressure;altitude;pressure_sealevel;temperature;humidity
75681;BME280;64294;49.176;16.626;2023-02-26T00:02:08;98226.03;;;-1.42;93.87
75681;BME280;64294;49.176;16.626;2023-02-26T00:04:35;98230.84;;;-1.37;93.82
75681;BME280;64294;49.176;16.626;2023-02-26T00:07:00;98227.81;;;-1.39;94.00
75681;BME280;64294;49.176;16.626;2023-02-26T00:09:26;98224.38;;;-1.34;93.84
75681;BME280;64294;49.176;16.626;2023-02-26T00:11:52;98227.97;;;-1.28;93.86
75681;BME280;64294;49.176;16.626;2023-02-26T00:14:18;98222.72;;;-1.26;93.98
75681;BME280;64294;49.176;16.626;2023-02-26T00:16:46;98219.75;;;-1.23;93.38
75681;BME280;64294;49.176;16.626;2023-02-26T00:19:14;98221.47;;;-1.25;93.29
75681;BME280;64294;49.176;16.626;2023-02-26T00:21:40;98212.94;;;-1.27;93.59
75681;BME280;64294;49.176;16.626;2023-02-26T00:24:05;98217.69;;;-1.28;93.51
75681;BME280;64294;49.176;16.626;2023-02-26T00:26:33;98215.53;;;-1.18;93.40
75681;BME280;64294;49.176;16.626;2023-02-26T00:28:59;98217.28;;;-1.20;93.06
75681;BME280;64294;49.176;16.626;2023-02-26T00:31:25;98223.09;;;-1.13;92.89
75681;BME280;64294;49.176;16.626;2023-02-26T00:33:55;98221.72;;;-1.03;91.56
75681;BME280;64294;49.176;16.626;2023-02-26T00:39:34;98226.50;;;-0.77;89.49
75681;BME280;64294;49.176;16.626;2023-02-26T00:42:01;98220.97;;;-0.77;89.19
75681;BME280;64294;49.176;16.626;2023-02-26T00:44:27;98235.03;;;-0.75;89.03
75681;BME280;64294;49.176;16.626;2023-02-26T00:47:06;98235.34;;;-0.73;88.39
75681;BME280;64294;49.176;16.626;2023-02-26T00:52:27;98243.31;;;-0.75;89.02
75681;BME280;64294;49.176;16.626;2023-02-26T00:54:54;98247.63;;;-0.74;88.92
75681;BME280;64294;49.176;16.626;2023-02-26T00:57:19;98258.69;;;-0.69;89.08
75681;BME280;64294;49.176;16.626;2023-02-26T00:59:45;98263.00;;;-0.62;88.16
75681;BME280;64294;49.176;16.626;2023-02-26T01:02:10;98266.31;;;-0.58;88.42
75681;BME280;64294;49.176;16.626;2023-02-26T01:04:36;98269.22;;;-0.41;87.97
75681;BME280;64294;49.176;16.626;2023-02-26T01:07:02;98282.53;;;-0.40;87.61
75681;BME280;64294;49.176;16.626;2023-02-26T01:11:58;98278.16;;;-0.26;86.95
75681;BME280;64294;49.176;16.626;2023-02-26T01:14:26;98275.72;;;-0.18;86.42
75681;BME280;64294;49.176;16.626;2023-02-26T01:19:47;98287.56;;;-0.12;85.67
75681;BME280;64294;49.176;16.626;2023-02-26T01:22:21;98284.34;;;-0.05;85.41
75681;BME280;64294;49.176;16.626;2023-02-26T01:24:48;98289.09;;;-0.11;85.66
75681;BME280;64294;49.176;16.626;2023-02-26T01:27:16;98288.38;;;-0.06;85.37
75681;BME280;64294;49.176;16.626;2023-02-26T01:29:42;98287.56;;;-0.12;86.00
75681;BME280;64294;49.176;16.626;2023-02-26T01:32:17;98286.09;;;-0.08;85.94
75681;BME280;64294;49.176;16.626;2023-02-26T01:34:50;98288.63;;;-0.04;85.92
75681;BME280;64294;49.176;16.626;2023-02-26T01:37:30;98296.38;;;-0.08;85.32
75681;BME280;64294;49.176;16.626;2023-02-26T01:43:11;98282.84;;;-0.06;85.67
75681;BME280;64294;49.176;16.626;2023-02-26T01:51:08;98272.31;;;-0.02;84.86
75681;BME280;64294;49.176;16.626;2023-02-26T01:53:35;98276.81;;;-0.05;84.92
75681;BME280;64294;49.176;16.626;2023-02-26T01:56:05;98281.34;;;-0.02;84.95
75681;BME280;64294;49.176;16.626;2023-02-26T01:58:35;98283.09;;;-0.04;85.33
75681;BME280;64294;49.176;16.626;2023-02-26T02:01:02;98288.19;;;0.03;84.97
75681;BME280;64294;49.176;16.626;2023-02-26T02:03:30;98297.25;;;0.04;84.42
75681;BME280;64294;49.176;16.626;2023-02-26T02:06:03;98300.28;;;0.06;83.84
75681;BME280;64294;49.176;16.626;2023-02-26T02:08:32;98309.13;;;0.15;83.67
75681;BME280;64294;49.176;16.626;2023-02-26T02:11:00;98302.34;;;0.16;82.80
75681;BME280;64294;49.176;16.626;2023-02-26T02:13:39;98307.88;;;0.16;83.46
75681;BME280;64294;49.176;16.626;2023-02-26T02:24:19;98313.22;;;0.25;81.87
75681;BME280;64294;49.176;16.626;2023-02-26T02:27:18;98316.25;;;0.27;82.06
75681;BME280;64294;49.176;16.626;2023-02-26T02:29:53;98312.25;;;0.28;82.56
75681;BME280;64294;49.176;16.626;2023-02-26T02:35:12;98333.13;;;0.35;82.08
75681;BME280;64294;49.176;16.626;2023-02-26T02:37:53;98331.63;;;0.34;81.88
75681;BME280;64294;49.176;16.626;2023-02-26T02:40:28;98337.91;;;0.35;82.20
75681;BME280;64294;49.176;16.626;2023-02-26T02:43:13;98342.00;;;0.45;82.19
75681;BME280;64294;49.176;16.626;2023-02-26T02:45:59;98335.13;;;0.35;82.58
75681;BME280;64294;49.176;16.626;2023-02-26T02:48:38;98335.63;;;0.33;83.46
75681;BME280;64294;49.176;16.626;2023-02-26T02:51:10;98337.69;;;0.38;83.21
75681;BME280;64294;49.176;16.626;2023-02-26T02:53:44;98333.63;;;0.34;82.72
75681;BME280;64294;49.176;16.626;2023-02-26T02:56:18;98332.94;;;0.39;82.39
75681;BME280;64294;49.176;16.626;2023-02-26T02:58:48;98341.75;;;0.43;81.98
75681;BME280;64294;49.176;16.626;2023-02-26T03:01:20;98350.56;;;0.47;81.36
75681;BME280;64294;49.176;16.626;2023-02-26T03:04:07;98352.81;;;0.43;80.94
75681;BME280;64294;49.176;16.626;2023-02-26T03:06:33;98352.56;;;0.46;80.42
75681;BME280;64294;49.176;16.626;2023-02-26T03:09:00;98354.56;;;0.46;80.62
75681;BME280;64294;49.176;16.626;2023-02-26T03:11:28;98364.66;;;0.49;80.54
75681;BME280;64294;49.176;16.626;2023-02-26T03:13:54;98369.44;;;0.54;79.90
75681;BME280;64294;49.176;16.626;2023-02-26T03:16:39;98372.94;;;0.49;80.18
75681;BME280;64294;49.176;16.626;2023-02-26T03:19:17;98381.69;;;0.42;80.69
75681;BME280;64294;49.176;16.626;2023-02-26T03:22:14;98379.44;;;0.46;80.99
75681;BME280;64294;49.176;16.626;2023-02-26T03:25:15;98382.75;;;0.50;80.99
75681;BME280;64294;49.176;16.626;2023-02-26T03:30:32;98396.69;;;0.35;81.62
75681;BME280;64294;49.176;16.626;2023-02-26T03:33:17;98402.06;;;0.44;81.29
75681;BME280;64294;49.176;16.626;2023-02-26T03:38:20;98405.00;;;0.35;81.01
75681;BME280;64294;49.176;16.626;2023-02-26T03:40:54;98409.75;;;0.35;81.18
75681;BME280;64294;49.176;16.626;2023-02-26T03:43:33;98409.50;;;0.33;81.36
75681;BME280;64294;49.176;16.626;2023-02-26T03:46:04;98421.97;;;0.22;81.83
75681;BME280;64294;49.176;16.626;2023-02-26T03:48:33;98421.03;;;0.31;81.86
75681;BME280;64294;49.176;16.626;2023-02-26T03:51:07;98410.75;;;0.32;80.56
75681;BME280;64294;49.176;16.626;2023-02-26T03:53:56;98411.38;;;0.47;79.91
75681;BME280;64294;49.176;16.626;2023-02-26T03:56:39;98414.88;;;0.42;80.35
75681;BME280;64294;49.176;16.626;2023-02-26T03:59:06;98423.81;;;0.31;80.61
75681;BME280;64294;49.176;16.626;2023-02-26T04:01:39;98422.78;;;0.28;81.03
75681;BME280;64294;49.176;16.626;2023-02-26T04:04:25;98433.88;;;0.34;80.61
75681;BME280;64294;49.176;16.626;2023-02-26T04:06:53;98440.06;;;0.23;81.22
75681;BME280;64294;49.176;16.626;2023-02-26T04:09:19;98442.34;;;0.25;81.19
75681;BME280;64294;49.176;16.626;2023-02-26T04:11:48;98445.81;;;0.20;81.05
75681;BME280;64294;49.176;16.626;2023-02-26T04:14:14;98443.81;;;0.20;80.61
75681;BME280;64294;49.176;16.626;2023-02-26T04:16:40;98446.28;;;0.18;80.70
75681;BME280;64294;49.176;16.626;2023-02-26T04:19:06;98450.53;;;0.14;81.32
75681;BME280;64294;49.176;16.626;2023-02-26T04:21:31;98448.75;;;0.11;82.49
75681;BME280;64294;49.176;16.626;2023-02-26T04:23:57;98457.25;;;0.07;81.73
75681;BME280;64294;49.176;16.626;2023-02-26T04:26:22;98462.22;;;0.03;82.36
75681;BME280;64294;49.176;16.626;2023-02-26T04:28:48;98468.84;;;0.11;82.54
75681;BME280;64294;49.176;16.626;2023-02-26T04:31:13;98468.28;;;0.07;82.22
75681;BME280;64294;49.176;16.626;2023-02-26T04:33:39;98481.09;;;0.05;82.49
75681;BME280;64294;49.176;16.626;2023-02-26T04:36:05;98485.22;;;-0.06;82.80
75681;BME280;64294;49.176;16.626;2023-02-26T04:38:31;98481.75;;;-0.01;82.22
75681;BME280;64294;49.176;16.626;2023-02-26T04:40:56;98491.03;;;-0.04;82.00
75681;BME280;64294;49.176;16.626;2023-02-26T04:43:22;98481.50;;;-0.03;82.19
75681;BME280;64294;49.176;16.626;2023-02-26T04:45:47;98481.66;;;-0.12;82.94
75681;BME280;64294;49.176;16.626;2023-02-26T04:48:14;98493.59;;;-0.20;82.95
75681;BME280;64294;49.176;16.626;2023-02-26T04:50:40;98495.25;;;-0.28;83.76
75681;BME280;64294;49.176;16.626;2023-02-26T04:53:06;98506.41;;;-0.38;84.58
75681;BME280;64294;49.176;16.626;2023-02-26T04:55:33;98512.53;;;-0.34;84.52
75681;BME280;64294;49.176;16.626;2023-02-26T04:57:59;98513.13;;;-0.44;84.78
75681;BME280;64294;49.176;16.626;2023-02-26T05:00:24;98515.28;;;-0.34;84.26
75681;BME280;64294;49.176;16.626;2023-02-26T05:02:50;98519.00;;;-0.37;83.54
75681;BME280;64294;49.176;16.626;2023-02-26T05:05:16;98520.53;;;-0.36;83.42
75681;BME280;64294;49.176;16.626;2023-02-26T05:07:41;98520.53;;;-0.36;83.04
75681;BME280;64294;49.176;16.626;2023-02-26T05:10:08;98525.28;;;-0.36;83.54
75681;BME280;64294;49.176;16.626;2023-02-26T05:12:33;98526.38;;;-0.28;83.38
75681;BME280;64294;49.176;16.626;2023-02-26T05:14:59;98523.69;;;-0.22;81.95
75681;BME280;64294;49.176;16.626;2023-02-26T05:17:25;98524.31;;;-0.33;81.37
75681;BME280;64294;49.176;16.626;2023-02-26T05:19:50;98527.47;;;-0.40;81.57
75681;BME280;64294;49.176;16.626;2023-02-26T05:22:16;98540.53;;;-0.41;81.71
75681;BME280;64294;49.176;16.626;2023-02-26T05:24:41;98541.47;;;-0.44;81.64
75681;BME280;64294;49.176;16.626;2023-02-26T05:27:08;98544.66;;;-0.51;81.28
75681;BME280;64294;49.176;16.626;2023-02-26T05:29:33;98549.03;;;-0.59;81.79
75681;BME280;64294;49.176;16.626;2023-02-26T05:31:59;98552.50;;;-0.64;82.33
75681;BME280;64294;49.176;16.626;2023-02-26T05:34:24;98552.97;;;-0.66;82.43
75681;BME280;64294;49.176;16.626;2023-02-26T05:36:50;98558.59;;;-0.75;82.94
75681;BME280;64294;49.176;16.626;2023-02-26T05:39:15;98549.88;;;-0.73;83.01
75681;BME280;64294;49.176;16.626;2023-02-26T05:41:40;98555.75;;;-0.80;84.05
75681;BME280;64294;49.176;16.626;2023-02-26T05:44:06;98556.06;;;-0.93;84.17
75681;BME280;64294;49.176;16.626;2023-02-26T05:46:33;98552.84;;;-0.92;83.93
75681;BME280;64294;49.176;16.626;2023-02-26T05:48:58;98562.81;;;-0.94;84.01
75681;BME280;64294;49.176;16.626;2023-02-26T05:51:24;98572.03;;;-0.97;83.75
75681;BME280;64294;49.176;16.626;2023-02-26T05:53:50;98572.16;;;-1.06;84.34
75681;BME280;64294;49.176;16.626;2023-02-26T05:56:15;98569.59;;;-1.10;84.56
75681;BME280;64294;49.176;16.626;2023-02-26T05:58:41;98574.53;;;-1.14;85.03
75681;BME280;64294;49.176;16.626;2023-02-26T06:01:07;98581.75;;;-1.16;85.10
75681;BME280;64294;49.176;16.626;2023-02-26T06:03:32;98574.91;;;-1.21;85.32
75681;BME280;64294;49.176;16.626;2023-02-26T06:05:57;98587.66;;;-1.24;85.75
75681;BME280;64294;49.176;16.626;2023-02-26T06:08:23;98591.38;;;-1.27;85.36
75681;BME280;64294;49.176;16.626;2023-02-26T06:10:49;98607.16;;;-1.27;85.65
75681;BME280;64294;49.176;16.626;2023-02-26T06:13:16;98601.44;;;-1.24;85.36
75681;BME280;64294;49.176;16.626;2023-02-26T06:15:44;98610.06;;;-1.31;85.57
75681;BME280;64294;49.176;16.626;2023-02-26T06:18:09;98615.88;;;-1.29;86.35
75681;BME280;64294;49.176;16.626;2023-02-26T06:20:35;98625.56;;;-1.33;86.86
75681;BME280;64294;49.176;16.626;2023-02-26T06:23:03;98639.47;;;-1.28;86.96
75681;BME280;64294;49.176;16.626;2023-02-26T06:25:28;98633.66;;;-1.30;87.51
75681;BME280;64294;49.176;16.626;2023-02-26T06:27:54;98638.81;;;-1.08;86.58
75681;BME280;64294;49.176;16.626;2023-02-26T06:30:19;98649.44;;;-0.42;83.72
75681;BME280;64294;49.176;16.626;2023-02-26T06:32:47;98655.47;;;0.12;80.52
75681;BME280;64294;49.176;16.626;2023-02-26T06:35:13;98649.41;;;0.28;78.99
75681;BME280;64294;49.176;16.626;2023-02-26T06:37:38;98651.19;;;0.11;79.11
75681;BME280;64294;49.176;16.626;2023-02-26T06:40:04;98669.16;;;0.62;76.69
75681;BME280;64294;49.176;16.626;2023-02-26T06:42:30;98671.78;;;0.51;76.69
75681;BME280;64294;49.176;16.626;2023-02-26T06:44:55;98677.94;;;0.81;75.70
75681;BME280;64294;49.176;16.626;2023-02-26T06:47:21;98699.53;;;1.03;74.14
75681;BME280;64294;49.176;16.626;2023-02-26T06:49:47;98704.88;;;1.95;71.04
75681;BME280;64294;49.176;16.626;2023-02-26T06:52:13;98703.34;;;4.53;60.91
75681;BME280;64294;49.176;16.626;2023-02-26T06:54:39;98708.25;;;7.17;51.70
75681;BME280;64294;49.176;16.626;2023-02-26T06:57:07;98711.28;;;8.73;47.47
75681;BME280;64294;49.176;16.626;2023-02-26T06:59:32;98712.66;;;9.40;43.67
75681;BME280;64294;49.176;16.626;2023-02-26T07:01:58;98724.19;;;11.19;38.71
75681;BME280;64294;49.176;16.626;2023-02-26T07:04:23;98715.03;;;12.38;37.05
75681;BME280;64294;49.176;16.626;2023-02-26T07:06:49;98712.06;;;13.87;32.62
75681;BME280;64294;49.176;16.626;2023-02-26T07:09:17;98719.84;;;15.23;30.37
75681;BME280;64294;49.176;16.626;2023-02-26T07:11:48;98718.19;;;16.18;29.01
75681;BME280;64294;49.176;16.626;2023-02-26T07:14:14;98718.69;;;17.00;27.55
75681;BME280;64294;49.176;16.626;2023-02-26T07:16:39;98726.22;;;17.65;25.61
75681;BME280;64294;49.176;16.626;2023-02-26T07:19:05;98725.66;;;17.56;26.23
75681;BME280;64294;49.176;16.626;2023-02-26T07:21:30;98729.56;;;17.42;25.40
75681;BME280;64294;49.176;16.626;2023-02-26T07:23:59;98732.88;;;17.09;25.72
75681;BME280;64294;49.176;16.626;2023-02-26T07:26:24;98731.41;;;18.69;24.14
75681;BME280;64294;49.176;16.626;2023-02-26T07:28:50;98737.38;;;18.11;23.87
75681;BME280;64294;49.176;16.626;2023-02-26T07:31:15;98734.00;;;17.64;24.12
75681;BME280;64294;49.176;16.626;2023-02-26T07:33:41;98723.13;;;18.94;23.12
75681;BME280;64294;49.176;16.626;2023-02-26T07:36:06;98720.03;;;18.59;23.11
75681;BME280;64294;49.176;16.626;2023-02-26T07:38:32;98727.09;;;17.96;23.51
75681;BME280;64294;49.176;16.626;2023-02-26T07:40:57;98728.19;;;18.22;23.80
75681;BME280;64294;49.176;16.626;2023-02-26T07:43:23;98728.00;;;18.61;23.42
75681;BME280;64294;49.176;16.626;2023-02-26T07:45:49;98726.19;;;19.62;22.31
75681;BME280;64294;49.176;16.626;2023-02-26T07:48:15;98724.75;;;19.85;21.17
75681;BME280;64294;49.176;16.626;2023-02-26T07:50:41;98730.13;;;20.61;20.78
75681;BME280;64294;49.176;16.626;2023-02-26T07:53:06;98736.13;;;19.40;21.36
75681;BME280;64294;49.176;16.626;2023-02-26T07:55:31;98743.22;;;21.01;20.63
75681;BME280;64294;49.176;16.626;2023-02-26T07:57:57;98736.25;;;19.75;20.94
75681;BME280;64294;49.176;16.626;2023-02-26T08:00:22;98753.97;;;20.65;20.16
75681;BME280;64294;49.176;16.626;2023-02-26T08:02:48;98749.81;;;21.91;19.87
75681;BME280;64294;49.176;16.626;2023-02-26T08:05:16;98753.03;;;21.72;19.16
75681;BME280;64294;49.176;16.626;2023-02-26T08:07:41;98758.91;;;19.40;20.94
75681;BME280;64294;49.176;16.626;2023-02-26T08:10:08;98755.34;;;19.18;21.50
75681;BME280;64294;49.176;16.626;2023-02-26T08:12:34;98747.75;;;21.29;19.45
75681;BME280;64294;49.176;16.626;2023-02-26T08:15:00;98764.34;;;20.25;20.54
75681;BME280;64294;49.176;16.626;2023-02-26T08:17:26;98764.84;;;21.04;20.03
75681;BME280;64294;49.176;16.626;2023-02-26T08:19:52;98760.25;;;21.48;19.94
75681;BME280;64294;49.176;16.626;2023-02-26T08:22:18;98754.84;;;20.44;19.69
75681;BME280;64294;49.176;16.626;2023-02-26T08:24:43;98752.69;;;22.30;18.28
75681;BME280;64294;49.176;16.626;2023-02-26T08:27:09;98755.91;;;21.72;18.61
75681;BME280;64294;49.176;16.626;2023-02-26T08:29:34;98754.31;;;21.94;18.96
75681;BME280;64294;49.176;16.626;2023-02-26T08:32:00;98754.00;;;22.69;18.35
75681;BME280;64294;49.176;16.626;2023-02-26T08:34:25;98768.88;;;22.12;18.87
75681;BME280;64294;49.176;16.626;2023-02-26T08:36:51;98768.88;;;22.12;18.86
75681;BME280;64294;49.176;16.626;2023-02-26T08:39:16;98769.28;;;21.81;18.91
75681;BME280;64294;49.176;16.626;2023-02-26T08:41:42;98778.22;;;21.62;19.01
75681;BME280;64294;49.176;16.626;2023-02-26T08:44:07;98792.59;;;16.46;24.11
75681;BME280;64294;49.176;16.626;2023-02-26T08:46:33;98793.41;;;16.19;25.10
75681;BME280;64294;49.176;16.626;2023-02-26T08:48:59;98804.81;;;14.81;29.79
75681;BME280;64294;49.176;16.626;2023-02-26T08:51:24;98813.66;;;12.69;32.05
75681;BME280;64294;49.176;16.626;2023-02-26T08:53:50;98810.88;;;17.27;25.02
75681;BME280;64294;49.176;16.626;2023-02-26T08:56:16;98810.88;;;19.29;21.10
75681;BME280;64294;49.176;16.626;2023-02-26T08:58:42;98814.28;;;19.16;21.54
75681;BME280;64294;49.176;16.626;2023-02-26T09:01:08;98822.47;;;16.74;23.46
75681;BME280;64294;49.176;16.626;2023-02-26T09:03:33;98813.66;;;14.60;26.58
75681;BME280;64294;49.176;16.626;2023-02-26T09:05:59;98820.78;;;13.08;29.20
75681;BME280;64294;49.176;16.626;2023-02-26T09:08:24;98838.03;;;11.26;32.82
75681;BME280;64294;49.176;16.626;2023-02-26T09:10:50;98831.19;;;11.86;32.22
75681;BME280;64294;49.176;16.626;2023-02-26T09:13:15;98836.19;;;10.29;35.36
75681;BME280;64294;49.176;16.626;2023-02-26T09:15:41;98846.84;;;9.10;37.83
75681;BME280;64294;49.176;16.626;2023-02-26T09:18:06;98858.06;;;8.84;38.39
75681;BME280;64294;49.176;16.626;2023-02-26T09:20:35;98860.66;;;7.99;40.62
75681;BME280;64294;49.176;16.626;2023-02-26T09:23:02;98880.91;;;8.24;40.91
75681;BME280;64294;49.176;16.626;2023-02-26T09:25:27;98866.28;;;8.49;40.22
75681;BME280;64294;49.176;16.626;2023-02-26T09:27:52;98875.19;;;7.97;41.10
75681;BME280;64294;49.176;16.626;2023-02-26T09:30:18;98884.25;;;7.22;42.55
75681;BME280;64294;49.176;16.626;2023-02-26T09:32:43;98891.03;;;6.54;44.46
75681;BME280;64294;49.176;16.626;2023-02-26T09:35:09;98896.75;;;5.96;46.53
75681;BME280;64294;49.176;16.626;2023-02-26T09:37:35;98899.28;;;5.88;47.06
75681;BME280;64294;49.176;16.626;2023-02-26T09:40:01;98903.16;;;5.80;47.80
75681;BME280;64294;49.176;16.626;2023-02-26T09:45:19;98903.69;;;4.70;51.28
75681;BME280;64294;49.176;16.626;2023-02-26T09:47:49;98905.19;;;4.93;50.26
75681;BME280;64294;49.176;16.626;2023-02-26T09:50:23;98915.06;;;4.83;50.64
75681;BME280;64294;49.176;16.626;2023-02-26T09:55:38;98915.91;;;6.16;46.61
75681;BME280;64294;49.176;16.626;2023-02-26T09:58:18;98920.63;;;7.66;43.68
75681;BME280;64294;49.176;16.626;2023-02-26T10:06:37;98924.88;;;10.80;35.76
75681;BME280;64294;49.176;16.626;2023-02-26T10:12:04;98922.06;;;12.37;32.83
75681;BME280;64294;49.176;16.626;2023-02-26T10:14:41;98926.81;;;12.73;31.11
75681;BME280;64294;49.176;16.626;2023-02-26T10:17:19;98924.53;;;11.61;32.24
75681;BME280;64294;49.176;16.626;2023-02-26T10:19:51;98934.41;;;11.83;31.62
75681;BME280;64294;49.176;16.626;2023-02-26T10:22:32;98942.47;;;11.79;33.08
75681;BME280;64294;49.176;16.626;2023-02-26T10:25:22;98935.88;;;13.02;31.07
75681;BME280;64294;49.176;16.626;2023-02-26T10:30:57;98935.59;;;18.78;23.20
75681;BME280;64294;49.176;16.626;2023-02-26T10:33:49;98939.72;;;21.14;21.27
75681;BME280;64294;49.176;16.626;2023-02-26T10:36:29;98937.34;;;19.45;22.35
75681;BME280;64294;49.176;16.626;2023-02-26T10:39:15;98938.25;;;15.79;26.05
75681;BME280;64294;49.176;16.626;2023-02-26T10:41:42;98944.84;;;14.32;26.98
75681;BME280;64294;49.176;16.626;2023-02-26T10:44:21;98952.69;;;12.41;28.86
75681;BME280;64294;49.176;16.626;2023-02-26T10:47:01;98955.78;;;11.21;31.03
75681;BME280;64294;49.176;16.626;2023-02-26T10:52:24;98949.91;;;9.49;34.01
75681;BME280;64294;49.176;16.626;2023-02-26T10:57:41;98957.38;;;10.88;32.05
75681;BME280;64294;49.176;16.626;2023-02-26T11:00:15;98955.50;;;9.36;34.23
75681;BME280;64294;49.176;16.626;2023-02-26T11:02:44;98967.00;;;9.19;35.05
75681;BME280;64294;49.176;16.626;2023-02-26T11:05:28;98976.13;;;7.80;38.25
75681;BME280;64294;49.176;16.626;2023-02-26T11:07:59;98977.19;;;7.77;38.60
75681;BME280;64294;49.176;16.626;2023-02-26T11:13:30;98978.69;;;9.36;36.11
75681;BME280;64294;49.176;16.626;2023-02-26T11:15:59;98978.91;;;11.56;32.20
75681;BME280;64294;49.176;16.626;2023-02-26T11:18:42;98974.28;;;15.86;25.66
75681;BME280;64294;49.176;16.626;2023-02-26T11:21:16;98969.19;;;18.12;21.78
75681;BME280;64294;49.176;16.626;2023-02-26T11:23:42;98976.28;;;19.62;20.34
75681;BME280;64294;49.176;16.626;2023-02-26T11:26:16;98962.44;;;19.68;19.04
75681;BME280;64294;49.176;16.626;2023-02-26T11:28:45;98979.84;;;19.72;19.72
75681;BME280;64294;49.176;16.626;2023-02-26T11:31:16;98979.66;;;19.70;18.95
75681;BME280;64294;49.176;16.626;2023-02-26T11:34:20;98978.47;;;19.94;18.95
75681;BME280;64294;49.176;16.626;2023-02-26T11:36:46;98974.00;;;20.24;18.19
75681;BME280;64294;49.176;16.626;2023-02-26T11:39:20;98975.53;;;23.12;16.25
75681;BME280;64294;49.176;16.626;2023-02-26T11:41:48;98975.38;;;22.32;16.54
75681;BME280;64294;49.176;16.626;2023-02-26T11:44:33;98989.53;;;20.00;18.08
75681;BME280;64294;49.176;16.626;2023-02-26T11:47:02;98991.59;;;15.90;22.13
75681;BME280;64294;49.176;16.626;2023-02-26T11:49:31;98988.25;;;14.60;23.56
75681;BME280;64294;49.176;16.626;2023-02-26T11:52:19;98988.56;;;13.22;25.82
75681;BME280;64294;49.176;16.626;2023-02-26T11:54:48;98990.91;;;14.58;24.67
75681;BME280;64294;49.176;16.626;2023-02-26T11:57:23;98990.44;;;13.27;25.89
75681;BME280;64294;49.176;16.626;2023-02-26T11:59:49;98986.66;;;12.35;28.06
75681;BME280;64294;49.176;16.626;2023-02-26T12:02:22;98982.66;;;14.52;26.34
75681;BME280;64294;49.176;16.626;2023-02-26T12:04:51;98994.44;;;17.23;23.13
75681;BME280;64294;49.176;16.626;2023-02-26T12:07:20;98997.75;;;15.62;23.94
75681;BME280;64294;49.176;16.626;2023-02-26T12:09:47;99001.22;;;12.55;26.77
75681;BME280;64294;49.176;16.626;2023-02-26T12:17:20;99011.53;;;8.40;34.62
75681;BME280;64294;49.176;16.626;2023-02-26T12:20:06;99021.88;;;7.58;36.39
75681;BME280;64294;49.176;16.626;2023-02-26T12:25:37;99017.31;;;6.24;39.06
75681;BME280;64294;49.176;16.626;2023-02-26T12:33:50;99025.31;;;5.75;40.68
75681;BME280;64294;49.176;16.626;2023-02-26T12:44:44;99024.19;;;6.18;43.51
75681;BME280;64294;49.176;16.626;2023-02-26T13:02:16;99049.81;;;4.15;57.85
75681;BME280;64294;49.176;16.626;2023-02-26T13:10:39;99058.28;;;4.54;57.54
75681;BME280;64294;49.176;16.626;2023-02-26T13:13:17;99049.22;;;4.70;56.41
75681;BME280;64294;49.176;16.626;2023-02-26T13:16:50;99052.50;;;4.80;54.96
75681;BME280;64294;49.176;16.626;2023-02-26T13:22:07;99051.41;;;4.38;51.50
75681;BME280;64294;49.176;16.626;2023-02-26T13:25:15;99057.00;;;4.49;51.94
75681;BME280;64294;49.176;16.626;2023-02-26T13:27:42;99071.44;;;4.59;50.80
75681;BME280;64294;49.176;16.626;2023-02-26T13:32:40;99090.22;;;4.81;49.28
75681;BME280;64294;49.176;16.626;2023-02-26T13:35:19;99096.28;;;4.68;51.17
75681;BME280;64294;49.176;16.626;2023-02-26T13:37:50;99109.13;;;4.54;49.69
75681;BME280;64294;49.176;16.626;2023-02-26T13:43:18;99106.09;;;4.52;51.22
75681;BME280;64294;49.176;16.626;2023-02-26T13:49:17;99113.25;;;4.76;51.18
75681;BME280;64294;49.176;16.626;2023-02-26T13:51:47;99110.47;;;4.76;49.61
75681;BME280;64294;49.176;16.626;2023-02-26T13:57:05;99120.06;;;4.75;48.59
75681;BME280;64294;49.176;16.626;2023-02-26T14:04:54;99122.06;;;4.04;52.60
75681;BME280;64294;49.176;16.626;2023-02-26T14:07:45;99131.63;;;3.91;53.03
75681;BME280;64294;49.176;16.626;2023-02-26T14:10:42;99125.72;;;3.84;54.50
75681;BME280;64294;49.176;16.626;2023-02-26T14:13:18;99116.44;;;3.92;53.72
75681;BME280;64294;49.176;16.626;2023-02-26T14:16:12;99121.47;;;3.88;54.01
75681;BME280;64294;49.176;16.626;2023-02-26T14:21:34;99129.63;;;3.98;53.10
75681;BME280;64294;49.176;16.626;2023-02-26T14:24:04;99125.59;;;4.04;51.08
75681;BME280;64294;49.176;16.626;2023-02-26T14:26:33;99122.38;;;4.17;50.12
75681;BME280;64294;49.176;16.626;2023-02-26T14:31:59;99127.69;;;4.15;50.19
75681;BME280;64294;49.176;16.626;2023-02-26T14:34:28;99132.50;;;4.14;50.35
75681;BME280;64294;49.176;16.626;2023-02-26T14:37:06;99134.56;;;3.82;52.10
75681;BME280;64294;49.176;16.626;2023-02-26T14:39:36;99131.75;;;3.77;52.58
75681;BME280;64294;49.176;16.626;2023-02-26T14:42:17;99138.28;;;3.37;53.48
75681;BME280;64294;49.176;16.626;2023-02-26T14:44:57;99135.09;;;3.18;54.85
75681;BME280;64294;49.176;16.626;2023-02-26T14:47:26;99138.38;;;3.16;56.84
75681;BME280;64294;49.176;16.626;2023-02-26T14:49:52;99147.78;;;2.98;57.10
75681;BME280;64294;49.176;16.626;2023-02-26T14:55:29;99143.00;;;2.99;57.23
75681;BME280;64294;49.176;16.626;2023-02-26T15:09:33;99155.22;;;3.39;51.26
75681;BME280;64294;49.176;16.626;2023-02-26T15:26:05;99171.56;;;3.62;49.30
75681;BME280;64294;49.176;16.626;2023-02-26T15:28:32;99169.19;;;3.50;51.73
75681;BME280;64294;49.176;16.626;2023-02-26T15:31:00;99176.06;;;3.28;52.28
75681;BME280;64294;49.176;16.626;2023-02-26T15:33:27;99180.28;;;3.18;53.22
75681;BME280;64294;49.176;16.626;2023-02-26T15:35:54;99192.28;;;2.84;53.57
75681;BME280;64294;49.176;16.626;2023-02-26T15:38:22;99207.53;;;2.73;54.08
75681;BME280;64294;49.176;16.626;2023-02-26T15:40:50;99199.56;;;2.81;54.97
75681;BME280;64294;49.176;16.626;2023-02-26T15:43:20;99194.38;;;2.68;55.19
75681;BME280;64294;49.176;16.626;2023-02-26T15:45:47;99201.28;;;2.58;55.79
75681;BME280;64294;49.176;16.626;2023-02-26T15:48:17;99201.50;;;2.55;56.38
75681;BME280;64294;49.176;16.626;2023-02-26T15:50:46;99217.94;;;2.58;58.48